Time,TemperatureF,DewpointF,PressureIn,WindDirection,WindDirectionDegrees,WindSpeedMPH,WindSpeedGustMPH,Humidity,HourlyPrecipIn,Conditions,Clouds,dailyrainin,SoftwareType,DateUTC
2013-09-29 00:00:00,73.3,71.0,29.98,NE,53,0.0,3.0,91,0.00,,,0.00,weatherlink.com 1.10,2013-09-29 04:00:00,
2013-09-29 00:15:00,73.2,71.0,29.97,NE,53,2.0,3.0,91,0.00,,,0.00,weatherlink.com 1.10,2013-09-29 04:15:00,
2013-09-29 00:30:00,73.1,70.0,29.97,NE,53,1.0,2.0,91,0.00,,,0.00,weatherlink.com 1.10,2013-09-29 04:30:00,
2013-09-29 00:45:00,72.9,70.0,29.96,NE,53,0.0,1.0,91,0.00,,,0.00,weatherlink.com 1.10,2013-09-29 04:45:00,
2013-09-29 01:00:00,72.7,70.0,29.97,NE,53,0.0,1.0,92,0.00,,,0.00,weatherlink.com 1.10,2013-09-29 05:00:00,
2013-09-29 01:15:00,72.6,70.0,29.96,NE,53,0.0,2.0,92,0.00,,,0.00,weatherlink.com 1.10,2013-09-29 05:15:00,
2013-09-29 01:30:00,72.3,70.0,29.96,North,5,0.0,2.0,92,0.00,,,0.00,weatherlink.com 1.10,2013-09-29 05:30:00,
2013-09-29 02:02:00,72.1,70.0,29.96,NW,308,0.0,2.0,93,0.00,,,0.00,weatherlink.com 1.10,2013-09-29 06:02:00,
2013-09-29 02:16:00,72.1,70.0,29.95,NW,325,0.0,2.0,93,0.00,,,0.00,weatherlink.com 1.10,2013-09-29 06:16:00,
2013-09-29 02:31:00,71.9,70.0,29.95,NW,325,0.0,2.0,93,0.00,,,0.00,weatherlink.com 1.10,2013-09-29 06:31:00,
2013-09-29 02:46:00,71.7,70.0,29.94,NW,325,0.0,1.0,94,0.00,,,0.00,weatherlink.com 1.10,2013-09-29 06:46:00,
2013-09-29 03:01:00,71.4,70.0,29.95,NW,325,0.0,1.0,94,0.00,,,0.00,weatherlink.com 1.10,2013-09-29 07:01:00,
2013-09-29 03:16:00,71.3,70.0,29.94,NW,325,1.0,2.0,94,0.00,,,0.00,weatherlink.com 1.10,2013-09-29 07:16:00,
2013-09-29 03:31:00,71.2,69.0,29.94,NNW,345,1.0,2.0,94,0.00,,,0.00,weatherlink.com 1.10,2013-09-29 07:31:00,
2013-09-29 03:46:00,71.0,69.0,29.94,North,10,0.0,2.0,94,0.00,,,0.00,weatherlink.com 1.10,2013-09-29 07:46:00,
2013-09-29 04:01:00,70.9,69.0,29.94,North,10,0.0,2.0,94,0.00,,,0.00,weatherlink.com 1.10,2013-09-29 08:01:00,
2013-09-29 04:16:00,70.8,69.0,29.94,NNE,19,0.0,3.0,94,0.00,,,0.00,weatherlink.com 1.10,2013-09-29 08:16:00,
2013-09-29 04:31:00,70.6,69.0,29.94,NNE,19,0.0,1.0,94,0.00,,,0.00,weatherlink.com 1.10,2013-09-29 08:31:00,
2013-09-29 04:46:00,70.5,69.0,29.94,NNE,19,0.0,0.0,94,0.00,,,0.00,weatherlink.com 1.10,2013-09-29 08:46:00,
2013-09-29 05:01:00,70.3,69.0,29.94,NNE,19,0.0,1.0,94,0.00,,,0.00,weatherlink.com 1.10,2013-09-29 09:01:00,
2013-09-29 05:16:00,70.1,69.0,29.94,NNE,19,0.0,1.0,95,0.00,,,0.00,weatherlink.com 1.10,2013-09-29 09:16:00,
2013-09-29 05:31:00,70.1,69.0,29.94,NNE,19,1.0,2.0,95,0.00,,,0.00,weatherlink.com 1.10,2013-09-29 09:31:00,
2013-09-29 05:46:00,69.9,69.0,29.95,NNE,19,0.0,1.0,95,0.00,,,0.00,weatherlink.com 1.10,2013-09-29 09:46:00,
2013-09-29 06:01:00,69.6,68.0,29.95,NNE,19,0.0,1.0,95,0.00,,,0.00,weatherlink.com 1.10,2013-09-29 10:01:00,
2013-09-29 06:16:00,69.5,68.0,29.96,NNE,19,0.0,2.0,95,0.00,,,0.00,weatherlink.com 1.10,2013-09-29 10:16:00,
2013-09-29 06:31:00,69.3,68.0,29.96,NNE,19,0.0,1.0,95,0.00,,,0.00,weatherlink.com 1.10,2013-09-29 10:31:00,
2013-09-29 06:46:00,69.1,68.0,29.96,NNE,19,0.0,0.0,96,0.00,,,0.00,weatherlink.com 1.10,2013-09-29 10:46:00,
2013-09-29 07:01:00,68.9,68.0,29.96,NNE,19,1.0,1.0,96,0.00,,,0.00,weatherlink.com 1.10,2013-09-29 11:01:00,
2013-09-29 07:16:00,68.8,68.0,29.96,NNE,19,0.0,1.0,96,0.00,,,0.00,weatherlink.com 1.10,2013-09-29 11:16:00,
2013-09-29 07:31:00,68.8,68.0,29.97,NNE,19,0.0,0.0,96,0.00,,,0.00,weatherlink.com 1.10,2013-09-29 11:31:00,
2013-09-29 07:46:00,68.8,68.0,29.97,NNE,19,0.0,1.0,96,0.00,,,0.00,weatherlink.com 1.10,2013-09-29 11:46:00,
2013-09-29 08:01:00,69.2,68.0,29.98,NNE,19,1.0,3.0,96,0.00,,,0.00,weatherlink.com 1.10,2013-09-29 12:01:00,
2013-09-29 08:16:00,69.8,69.0,29.98,North,5,2.0,3.0,97,0.00,,,0.00,weatherlink.com 1.10,2013-09-29 12:16:00,
2013-09-29 08:31:00,70.3,69.0,29.98,NNW,338,1.0,5.0,96,0.00,,,0.00,weatherlink.com 1.10,2013-09-29 12:31:00,
2013-09-29 08:46:00,71.1,70.0,29.98,NE,40,1.0,5.0,97,0.00,,,0.00,weatherlink.com 1.10,2013-09-29 12:46:00,
2013-09-29 09:01:00,72.0,71.0,29.98,North,5,2.0,5.0,96,0.00,,,0.00,weatherlink.com 1.10,2013-09-29 13:01:00,
2013-09-29 09:16:00,73.1,72.0,29.98,NNE,23,0.0,5.0,96,0.00,,,0.00,weatherlink.com 1.10,2013-09-29 13:16:00,
2013-09-29 09:31:00,75.4,73.0,29.98,North,350,1.0,5.0,92,0.00,,,0.00,weatherlink.com 1.10,2013-09-29 13:31:00,
2013-09-29 09:46:00,76.7,73.0,29.98,East,86,2.0,8.0,88,0.00,,,0.00,weatherlink.com 1.10,2013-09-29 13:46:00,
2013-09-29 10:01:00,77.8,73.0,29.98,NE,34,4.0,8.0,86,0.00,,,0.00,weatherlink.com 1.10,2013-09-29 14:01:00,
2013-09-29 10:17:00,79.1,73.0,29.98,NNW,331,3.0,8.0,82,0.00,,,0.00,weatherlink.com 1.10,2013-09-29 14:17:00,
2013-09-29 10:31:00,80.0,73.0,29.98,NNE,28,3.0,7.0,80,0.00,,,0.00,weatherlink.com 1.10,2013-09-29 14:31:00,
2013-09-29 10:46:00,80.5,73.0,29.98,NE,53,3.0,7.0,78,0.00,,,0.00,weatherlink.com 1.10,2013-09-29 14:46:00,
2013-09-29 11:01:00,81.1,73.0,29.98,ENE,68,0.0,7.0,75,0.00,,,0.00,weatherlink.com 1.10,2013-09-29 15:01:00,
2013-09-29 11:16:00,80.9,71.0,29.98,NE,48,0.0,6.0,71,0.00,,,0.00,weatherlink.com 1.10,2013-09-29 15:16:00,
2013-09-29 11:31:00,82.3,72.0,29.98,NE,44,0.0,6.0,72,0.00,,,0.00,weatherlink.com 1.10,2013-09-29 15:31:00,
2013-09-29 11:46:00,82.4,71.0,29.98,NE,40,2.0,6.0,68,0.00,,,0.00,weatherlink.com 1.10,2013-09-29 15:46:00,
2013-09-29 12:01:00,82.2,70.0,29.97,NE,38,0.0,5.0,66,0.00,,,0.00,weatherlink.com 1.10,2013-09-29 16:01:00,
2013-09-29 12:17:00,82.7,70.0,29.97,NNE,28,0.0,6.0,66,0.00,,,0.00,weatherlink.com 1.10,2013-09-29 16:17:00,
2013-09-29 12:32:00,84.2,72.0,29.97,NNE,19,2.0,6.0,67,0.00,,,0.00,weatherlink.com 1.10,2013-09-29 16:32:00,
2013-09-29 12:47:00,84.0,71.0,29.96,NE,36,4.0,7.0,65,0.00,,,0.00,weatherlink.com 1.10,2013-09-29 16:47:00,
2013-09-29 13:02:00,84.7,71.0,29.95,NE,38,2.0,4.0,63,0.00,,,0.00,weatherlink.com 1.10,2013-09-29 17:02:00,
2013-09-29 13:17:00,85.4,69.0,29.95,NW,313,1.0,7.0,59,0.00,,,0.00,weatherlink.com 1.10,2013-09-29 17:17:00,
2013-09-29 13:32:00,85.8,70.0,29.94,NE,40,2.0,6.0,59,0.00,,,0.00,weatherlink.com 1.10,2013-09-29 17:32:00,
2013-09-29 13:47:00,85.1,71.0,29.94,WNW,292,4.0,5.0,63,0.00,,,0.00,weatherlink.com 1.10,2013-09-29 17:47:00,
2013-09-29 14:02:00,86.5,71.0,29.93,NNW,327,2.0,7.0,61,0.00,,,0.00,weatherlink.com 1.10,2013-09-29 18:02:00,
2013-09-29 14:17:00,86.3,69.0,29.93,NW,325,2.0,5.0,57,0.00,,,0.00,weatherlink.com 1.10,2013-09-29 18:17:00,
2013-09-29 14:32:00,85.4,68.0,29.92,NE,35,0.0,6.0,56,0.00,,,0.00,weatherlink.com 1.10,2013-09-29 18:32:00,
2013-09-29 14:47:00,86.5,68.0,29.91,NE,36,4.0,7.0,55,0.00,,,0.00,weatherlink.com 1.10,2013-09-29 18:47:00,
2013-09-29 15:02:00,86.6,71.0,29.90,NNE,30,4.0,6.0,59,0.00,,,0.00,weatherlink.com 1.10,2013-09-29 19:02:00,
2013-09-29 15:17:00,86.5,68.0,29.90,NNE,28,5.0,7.0,54,0.00,,,0.00,weatherlink.com 1.10,2013-09-29 19:17:00,
2013-09-29 15:32:00,86.5,68.0,29.89,ENE,68,0.0,7.0,55,0.00,,,0.00,weatherlink.com 1.10,2013-09-29 19:32:00,
2013-09-29 16:02:00,86.8,70.0,29.89,NNE,26,2.0,8.0,57,0.00,,,0.00,weatherlink.com 1.10,2013-09-29 20:02:00,
2013-09-29 16:17:00,87.6,70.0,29.89,NNE,33,3.0,6.0,56,0.00,,,0.00,weatherlink.com 1.10,2013-09-29 20:17:00,
2013-09-29 16:32:00,86.5,69.0,29.88,NW,308,4.0,7.0,56,0.00,,,0.00,weatherlink.com 1.10,2013-09-29 20:32:00,
2013-09-29 16:47:00,86.8,68.0,29.88,NNE,31,3.0,5.0,53,0.00,,,0.00,weatherlink.com 1.10,2013-09-29 20:47:00,
2013-09-29 17:02:00,86.5,68.0,29.88,NE,42,2.0,7.0,54,0.00,,,0.00,weatherlink.com 1.10,2013-09-29 21:02:00,
2013-09-29 17:17:00,86.3,68.0,29.89,NE,49,4.0,8.0,54,0.00,,,0.00,weatherlink.com 1.10,2013-09-29 21:17:00,
2013-09-29 17:32:00,86.1,67.0,29.89,North,5,5.0,6.0,54,0.00,,,0.00,weatherlink.com 1.10,2013-09-29 21:32:00,
2013-09-29 17:47:00,85.6,67.0,29.89,NNE,32,1.0,5.0,54,0.00,,,0.00,weatherlink.com 1.10,2013-09-29 21:47:00,
2013-09-29 18:02:00,85.3,66.0,29.89,NNE,32,5.0,7.0,53,0.00,,,0.00,weatherlink.com 1.10,2013-09-29 22:02:00,
2013-09-29 18:17:00,84.7,66.0,29.89,NNE,32,2.0,6.0,54,0.00,,,0.00,weatherlink.com 1.10,2013-09-29 22:17:00,
2013-09-29 18:32:00,83.8,67.0,29.89,NE,48,2.0,6.0,57,0.00,,,0.00,weatherlink.com 1.10,2013-09-29 22:32:00,
2013-09-29 18:47:00,83.1,66.0,29.90,ENE,63,1.0,3.0,57,0.00,,,0.00,weatherlink.com 1.10,2013-09-29 22:47:00,
2013-09-29 19:02:00,82.2,71.0,29.91,East,86,8.0,14.0,69,0.00,,,0.00,weatherlink.com 1.10,2013-09-29 23:02:00,
2013-09-29 19:17:00,80.1,71.0,29.91,ENE,57,5.0,10.0,73,0.00,,,0.00,weatherlink.com 1.10,2013-09-29 23:17:00,
2013-09-29 19:32:00,78.7,71.0,29.91,East,79,2.0,8.0,76,0.00,,,0.00,weatherlink.com 1.10,2013-09-29 23:32:00,
2013-09-29 19:47:00,78.1,71.0,29.91,NE,38,4.0,6.0,79,0.00,,,0.00,weatherlink.com 1.10,2013-09-29 23:47:00,
2013-09-29 20:02:00,77.4,71.0,29.92,ENE,68,2.0,6.0,81,0.00,,,0.00,weatherlink.com 1.10,2013-09-30 00:02:00,
2013-09-29 20:17:00,76.9,71.0,29.92,ENE,78,0.0,4.0,82,0.00,,,0.00,weatherlink.com 1.10,2013-09-30 00:17:00,
2013-09-29 20:32:00,76.5,71.0,29.93,NE,54,2.0,3.0,83,0.00,,,0.00,weatherlink.com 1.10,2013-09-30 00:32:00,
2013-09-29 20:47:00,76.1,71.0,29.93,NE,54,1.0,3.0,84,0.00,,,0.00,weatherlink.com 1.10,2013-09-30 00:47:00,
2013-09-29 21:02:00,75.7,71.0,29.94,NE,54,0.0,0.0,84,0.00,,,0.00,weatherlink.com 1.10,2013-09-30 01:02:00,
2013-09-29 21:17:00,75.2,71.0,29.95,NE,54,0.0,1.0,85,0.00,,,0.00,weatherlink.com 1.10,2013-09-30 01:17:00,
2013-09-29 21:32:00,74.6,70.0,29.95,NE,54,0.0,2.0,86,0.00,,,0.00,weatherlink.com 1.10,2013-09-30 01:32:00,
2013-09-29 21:47:00,74.4,70.0,29.96,NE,54,0.0,1.0,87,0.00,,,0.00,weatherlink.com 1.10,2013-09-30 01:47:00,
2013-09-29 22:02:00,74.0,70.0,29.96,NE,54,0.0,0.0,86,0.00,,,0.00,weatherlink.com 1.10,2013-09-30 02:02:00,
2013-09-29 22:17:00,73.4,70.0,29.97,NE,54,0.0,0.0,88,0.00,,,0.00,weatherlink.com 1.10,2013-09-30 02:17:00,
2013-09-29 22:32:00,72.8,69.0,29.97,NE,54,0.0,0.0,88,0.00,,,0.00,weatherlink.com 1.10,2013-09-30 02:32:00,
2013-09-29 22:47:00,72.2,69.0,29.97,NE,54,0.0,0.0,88,0.00,,,0.00,weatherlink.com 1.10,2013-09-30 02:47:00,
2013-09-29 23:02:00,71.6,68.0,29.96,NE,54,0.0,0.0,89,0.00,,,0.00,weatherlink.com 1.10,2013-09-30 03:02:00,
2013-09-29 23:17:00,71.1,68.0,29.96,NE,54,0.0,0.0,90,0.00,,,0.00,weatherlink.com 1.10,2013-09-30 03:17:00,
2013-09-29 23:32:00,70.7,68.0,29.96,NE,54,0.0,0.0,91,0.00,,,0.00,weatherlink.com 1.10,2013-09-30 03:32:00,
2013-09-29 23:47:00,70.3,68.0,29.96,NE,54,0.0,0.0,91,0.00,,,0.00,weatherlink.com 1.10,2013-09-30 03:47:00,